sensor_id;sensor_type;location;lat;lon;timestamp;temperature;humidity
9881;DHT22;4979;51.014;6.678;2023-02-02T00:02:03;7.40;99.90
9881;DHT22;4979;51.014;6.678;2023-02-02T00:04:34;7.40;99.90
9881;DHT22;4979;51.014;6.678;2023-02-02T00:07:01;7.40;99.90
9881;DHT22;4979;51.014;6.678;2023-02-02T00:09:30;7.30;99.90
9881;DHT22;4979;51.014;6.678;2023-02-02T00:11:57;7.40;99.90
9881;DHT22;4979;51.014;6.678;2023-02-02T00:14:23;7.40;99.90
9881;DHT22;4979;51.014;6.678;2023-02-02T00:16:51;7.30;99.90
9881;DHT22;4979;51.014;6.678;2023-02-02T00:19:23;7.40;99.90
9881;DHT22;4979;51.014;6.678;2023-02-02T00:21:51;7.40;99.90
9881;DHT22;4979;51.014;6.678;2023-02-02T00:24:17;7.30;99.90
9881;DHT22;4979;51.014;6.678;2023-02-02T00:26:45;7.30;99.90
9881;DHT22;4979;51.014;6.678;2023-02-02T00:29:17;7.40;99.90
9881;DHT22;4979;51.014;6.678;2023-02-02T00:31:43;7.40;99.90
9881;DHT22;4979;51.014;6.678;2023-02-02T00:34:12;7.40;99.90
9881;DHT22;4979;51.014;6.678;2023-02-02T00:36:38;7.40;99.90
9881;DHT22;4979;51.014;6.678;2023-02-02T00:39:05;7.40;99.90
9881;DHT22;4979;51.014;6.678;2023-02-02T00:41:30;7.40;99.90
9881;DHT22;4979;51.014;6.678;2023-02-02T00:43:56;7.40;99.90
9881;DHT22;4979;51.014;6.678;2023-02-02T00:46:41;7.40;99.90
9881;DHT22;4979;51.014;6.678;2023-02-02T00:49:07;7.40;99.90
9881;DHT22;4979;51.014;6.678;2023-02-02T00:51:34;7.40;99.90
9881;DHT22;4979;51.014;6.678;2023-02-02T00:54:00;7.50;99.90
9881;DHT22;4979;51.014;6.678;2023-02-02T00:56:26;7.40;99.90
9881;DHT22;4979;51.014;6.678;2023-02-02T00:58:52;7.40;99.90
9881;DHT22;4979;51.014;6.678;2023-02-02T01:01:18;7.50;99.90
9881;DHT22;4979;51.014;6.678;2023-02-02T01:03:48;7.40;99.90
9881;DHT22;4979;51.014;6.678;2023-02-02T01:06:14;7.40;99.90
9881;DHT22;4979;51.014;6.678;2023-02-02T01:08:40;7.50;99.90
9881;DHT22;4979;51.014;6.678;2023-02-02T01:11:06;7.40;99.90
9881;DHT22;4979;51.014;6.678;2023-02-02T01:13:32;7.40;99.90
9881;DHT22;4979;51.014;6.678;2023-02-02T01:15:59;7.40;99.90
9881;DHT22;4979;51.014;6.678;2023-02-02T01:18:25;7.30;99.90
9881;DHT22;4979;51.014;6.678;2023-02-02T01:21:03;7.40;99.90
9881;DHT22;4979;51.014;6.678;2023-02-02T01:23:30;7.30;99.90
9881;DHT22;4979;51.014;6.678;2023-02-02T01:25:59;7.30;99.90
9881;DHT22;4979;51.014;6.678;2023-02-02T01:28:26;7.40;99.90
9881;DHT22;4979;51.014;6.678;2023-02-02T01:30:52;7.30;99.90
9881;DHT22;4979;51.014;6.678;2023-02-02T01:33:18;7.30;99.90
9881;DHT22;4979;51.014;6.678;2023-02-02T01:35:51;7.30;99.90
9881;DHT22;4979;51.014;6.678;2023-02-02T01:38:17;7.30;99.90
9881;DHT22;4979;51.014;6.678;2023-02-02T01:40:48;7.30;99.90
9881;DHT22;4979;51.014;6.678;2023-02-02T01:43:27;7.20;99.90
9881;DHT22;4979;51.014;6.678;2023-02-02T01:45:54;7.30;99.90
9881;DHT22;4979;51.014;6.678;2023-02-02T01:48:23;7.30;99.90
9881;DHT22;4979;51.014;6.678;2023-02-02T01:50:54;7.30;99.90
9881;DHT22;4979;51.014;6.678;2023-02-02T01:53:21;7.30;99.90
9881;DHT22;4979;51.014;6.678;2023-02-02T01:55:48;7.30;99.90
9881;DHT22;4979;51.014;6.678;2023-02-02T01:58:32;7.40;99.90
9881;DHT22;4979;51.014;6.678;2023-02-02T02:00:58;7.40;99.90
9881;DHT22;4979;51.014;6.678;2023-02-02T02:03:26;7.40;99.90
9881;DHT22;4979;51.014;6.678;2023-02-02T02:05:55;7.40;99.90
9881;DHT22;4979;51.014;6.678;2023-02-02T02:08:37;7.50;99.90
9881;DHT22;4979;51.014;6.678;2023-02-02T02:11:03;7.40;99.90
9881;DHT22;4979;51.014;6.678;2023-02-02T02:13:29;7.40;99.90
9881;DHT22;4979;51.014;6.678;2023-02-02T02:16:33;7.50;99.90
9881;DHT22;4979;51.014;6.678;2023-02-02T02:21:54;7.40;99.90
9881;DHT22;4979;51.014;6.678;2023-02-02T02:28:33;7.40;99.90
9881;DHT22;4979;51.014;6.678;2023-02-02T02:34:02;7.40;99.90
9881;DHT22;4979;51.014;6.678;2023-02-02T02:36:55;7.40;99.90
9881;DHT22;4979;51.014;6.678;2023-02-02T02:41:59;7.40;99.90
9881;DHT22;4979;51.014;6.678;2023-02-02T02:44:28;7.40;99.90
9881;DHT22;4979;51.014;6.678;2023-02-02T02:46:56;7.40;99.90
9881;DHT22;4979;51.014;6.678;2023-02-02T02:49:21;7.50;99.90
9881;DHT22;4979;51.014;6.678;2023-02-02T02:51:52;7.50;99.90
9881;DHT22;4979;51.014;6.678;2023-02-02T02:59:56;7.40;99.90
9881;DHT22;4979;51.014;6.678;2023-02-02T03:08:04;7.40;99.90
9881;DHT22;4979;51.014;6.678;2023-02-02T03:10:31;7.40;99.90
9881;DHT22;4979;51.014;6.678;2023-02-02T03:12:58;7.30;99.90
9881;DHT22;4979;51.014;6.678;2023-02-02T03:15:24;7.30;99.90
9881;DHT22;4979;51.014;6.678;2023-02-02T03:17:50;7.40;99.90
9881;DHT22;4979;51.014;6.678;2023-02-02T03:20:17;7.30;99.90
9881;DHT22;4979;51.014;6.678;2023-02-02T03:22:42;7.30;99.90
9881;DHT22;4979;51.014;6.678;2023-02-02T03:25:08;7.30;99.90
9881;DHT22;4979;51.014;6.678;2023-02-02T03:27:37;7.30;99.90
9881;DHT22;4979;51.014;6.678;2023-02-02T03:30:05;7.40;99.90
9881;DHT22;4979;51.014;6.678;2023-02-02T03:32:31;7.20;99.90
9881;DHT22;4979;51.014;6.678;2023-02-02T03:34:56;7.30;99.90
9881;DHT22;4979;51.014;6.678;2023-02-02T03:37:22;7.30;99.90
9881;DHT22;4979;51.014;6.678;2023-02-02T03:39:47;7.30;99.90
9881;DHT22;4979;51.014;6.678;2023-02-02T03:42:13;7.40;99.90
9881;DHT22;4979;51.014;6.678;2023-02-02T03:44:38;7.30;99.90
9881;DHT22;4979;51.014;6.678;2023-02-02T03:47:04;7.30;99.90
9881;DHT22;4979;51.014;6.678;2023-02-02T03:49:29;7.30;99.90
9881;DHT22;4979;51.014;6.678;2023-02-02T03:51:56;7.40;99.90
9881;DHT22;4979;51.014;6.678;2023-02-02T03:54:22;7.30;99.90
9881;DHT22;4979;51.014;6.678;2023-02-02T03:56:47;7.30;99.90
9881;DHT22;4979;51.014;6.678;2023-02-02T03:59:13;7.30;99.90
9881;DHT22;4979;51.014;6.678;2023-02-02T04:01:38;7.40;99.90
9881;DHT22;4979;51.014;6.678;2023-02-02T04:04:04;7.30;99.90
9881;DHT22;4979;51.014;6.678;2023-02-02T04:06:30;7.40;99.90
9881;DHT22;4979;51.014;6.678;2023-02-02T04:08:55;7.40;99.90
9881;DHT22;4979;51.014;6.678;2023-02-02T04:11:21;7.30;99.90
9881;DHT22;4979;51.014;6.678;2023-02-02T04:13:46;7.40;99.90
9881;DHT22;4979;51.014;6.678;2023-02-02T04:16:12;7.40;99.90
9881;DHT22;4979;51.014;6.678;2023-02-02T04:18:38;7.40;99.90
9881;DHT22;4979;51.014;6.678;2023-02-02T04:21:04;7.40;99.90
9881;DHT22;4979;51.014;6.678;2023-02-02T04:23:31;7.30;99.90
9881;DHT22;4979;51.014;6.678;2023-02-02T04:25:57;7.30;99.90
9881;DHT22;4979;51.014;6.678;2023-02-02T04:28:24;7.40;99.90
9881;DHT22;4979;51.014;6.678;2023-02-02T04:30:54;7.40;99.90
9881;DHT22;4979;51.014;6.678;2023-02-02T04:33:21;7.30;99.90
9881;DHT22;4979;51.014;6.678;2023-02-02T04:35:46;7.30;99.90
9881;DHT22;4979;51.014;6.678;2023-02-02T04:38:12;7.30;99.90
9881;DHT22;4979;51.014;6.678;2023-02-02T04:40:41;7.30;99.90
9881;DHT22;4979;51.014;6.678;2023-02-02T04:43:07;7.30;99.90
9881;DHT22;4979;51.014;6.678;2023-02-02T04:45:33;7.30;99.90
9881;DHT22;4979;51.014;6.678;2023-02-02T04:47:59;7.30;99.90
9881;DHT22;4979;51.014;6.678;2023-02-02T04:50:25;7.40;99.90
9881;DHT22;4979;51.014;6.678;2023-02-02T04:52:50;7.30;99.90
9881;DHT22;4979;51.014;6.678;2023-02-02T04:55:16;7.20;99.90
9881;DHT22;4979;51.014;6.678;2023-02-02T04:57:42;7.30;99.90
9881;DHT22;4979;51.014;6.678;2023-02-02T05:00:08;7.30;99.90
9881;DHT22;4979;51.014;6.678;2023-02-02T05:02:36;7.20;99.90
9881;DHT22;4979;51.014;6.678;2023-02-02T05:05:03;7.40;99.90
9881;DHT22;4979;51.014;6.678;2023-02-02T05:07:29;7.30;99.90
9881;DHT22;4979;51.014;6.678;2023-02-02T05:09:54;7.30;99.90
9881;DHT22;4979;51.014;6.678;2023-02-02T05:12:20;7.30;99.90
9881;DHT22;4979;51.014;6.678;2023-02-02T05:14:45;7.30;99.90
9881;DHT22;4979;51.014;6.678;2023-02-02T05:17:11;7.40;99.90
9881;DHT22;4979;51.014;6.678;2023-02-02T05:19:37;7.30;99.90
9881;DHT22;4979;51.014;6.678;2023-02-02T05:22:02;7.20;99.90
9881;DHT22;4979;51.014;6.678;2023-02-02T05:24:28;7.20;99.90
9881;DHT22;4979;51.014;6.678;2023-02-02T05:26:53;7.30;99.90
9881;DHT22;4979;51.014;6.678;2023-02-02T05:29:23;7.30;99.90
9881;DHT22;4979;51.014;6.678;2023-02-02T05:31:48;7.30;99.90
9881;DHT22;4979;51.014;6.678;2023-02-02T05:34:14;7.20;99.90
9881;DHT22;4979;51.014;6.678;2023-02-02T05:36:40;7.30;99.90
9881;DHT22;4979;51.014;6.678;2023-02-02T05:39:05;7.30;99.90
9881;DHT22;4979;51.014;6.678;2023-02-02T05:41:31;7.20;99.90
9881;DHT22;4979;51.014;6.678;2023-02-02T05:44:00;7.20;99.90
9881;DHT22;4979;51.014;6.678;2023-02-02T05:46:26;7.30;99.90
9881;DHT22;4979;51.014;6.678;2023-02-02T05:48:51;7.30;99.90
9881;DHT22;4979;51.014;6.678;2023-02-02T05:51:20;7.20;99.90
9881;DHT22;4979;51.014;6.678;2023-02-02T05:53:48;7.30;99.90
9881;DHT22;4979;51.014;6.678;2023-02-02T05:56:14;7.20;99.90
9881;DHT22;4979;51.014;6.678;2023-02-02T05:58:41;7.10;99.90
9881;DHT22;4979;51.014;6.678;2023-02-02T06:01:07;7.10;99.90
9881;DHT22;4979;51.014;6.678;2023-02-02T06:03:33;7.10;99.90
9881;DHT22;4979;51.014;6.678;2023-02-02T06:05:59;7.10;99.90
9881;DHT22;4979;51.014;6.678;2023-02-02T06:08:25;7.20;99.90
9881;DHT22;4979;51.014;6.678;2023-02-02T06:10:50;7.10;99.90
9881;DHT22;4979;51.014;6.678;2023-02-02T06:13:16;7.00;99.90
9881;DHT22;4979;51.014;6.678;2023-02-02T06:15:41;7.00;99.90
9881;DHT22;4979;51.014;6.678;2023-02-02T06:18:08;7.10;99.90
9881;DHT22;4979;51.014;6.678;2023-02-02T06:20:34;7.10;99.90
9881;DHT22;4979;51.014;6.678;2023-02-02T06:23:00;7.00;99.90
9881;DHT22;4979;51.014;6.678;2023-02-02T06:25:26;7.10;99.90
9881;DHT22;4979;51.014;6.678;2023-02-02T06:27:56;7.00;99.90
9881;DHT22;4979;51.014;6.678;2023-02-02T06:30:22;7.00;99.90
9881;DHT22;4979;51.014;6.678;2023-02-02T06:32:47;7.10;99.90
9881;DHT22;4979;51.014;6.678;2023-02-02T06:35:13;7.00;99.90
9881;DHT22;4979;51.014;6.678;2023-02-02T06:37:38;7.10;99.90
9881;DHT22;4979;51.014;6.678;2023-02-02T06:40:06;7.00;99.90
9881;DHT22;4979;51.014;6.678;2023-02-02T06:42:32;7.10;99.90
9881;DHT22;4979;51.014;6.678;2023-02-02T06:44:58;7.00;99.90
9881;DHT22;4979;51.014;6.678;2023-02-02T06:47:24;7.00;99.90
9881;DHT22;4979;51.014;6.678;2023-02-02T06:49:49;6.90;99.90
9881;DHT22;4979;51.014;6.678;2023-02-02T06:52:15;7.00;99.90
9881;DHT22;4979;51.014;6.678;2023-02-02T06:54:40;7.00;99.90
9881;DHT22;4979;51.014;6.678;2023-02-02T06:57:06;7.00;99.90
9881;DHT22;4979;51.014;6.678;2023-02-02T06:59:31;6.90;99.90
9881;DHT22;4979;51.014;6.678;2023-02-02T07:01:57;7.00;99.90
9881;DHT22;4979;51.014;6.678;2023-02-02T07:04:22;7.00;99.90
9881;DHT22;4979;51.014;6.678;2023-02-02T07:06:48;7.00;99.90
9881;DHT22;4979;51.014;6.678;2023-02-02T07:09:13;7.00;99.90
9881;DHT22;4979;51.014;6.678;2023-02-02T07:11:39;7.00;99.90
9881;DHT22;4979;51.014;6.678;2023-02-02T07:14:05;7.10;99.90
9881;DHT22;4979;51.014;6.678;2023-02-02T07:16:31;7.00;99.90
9881;DHT22;4979;51.014;6.678;2023-02-02T07:18:56;7.10;99.90
9881;DHT22;4979;51.014;6.678;2023-02-02T07:21:24;7.00;99.90
9881;DHT22;4979;51.014;6.678;2023-02-02T07:23:50;7.00;99.90
9881;DHT22;4979;51.014;6.678;2023-02-02T07:26:17;7.00;99.90
9881;DHT22;4979;51.014;6.678;2023-02-02T07:28:43;7.00;99.90
9881;DHT22;4979;51.014;6.678;2023-02-02T07:33:43;6.90;99.90
9881;DHT22;4979;51.014;6.678;2023-02-02T07:36:10;7.00;99.90
9881;DHT22;4979;51.014;6.678;2023-02-02T07:38:36;7.00;99.90
9881;DHT22;4979;51.014;6.678;2023-02-02T07:41:02;6.90;99.90
9881;DHT22;4979;51.014;6.678;2023-02-02T07:43:28;6.90;99.90
9881;DHT22;4979;51.014;6.678;2023-02-02T07:45:57;7.00;99.90
9881;DHT22;4979;51.014;6.678;2023-02-02T07:48:26;6.90;99.90
9881;DHT22;4979;51.014;6.678;2023-02-02T07:50:51;7.00;99.90
9881;DHT22;4979;51.014;6.678;2023-02-02T07:53:17;7.00;99.90
9881;DHT22;4979;51.014;6.678;2023-02-02T07:55:42;7.10;99.90
9881;DHT22;4979;51.014;6.678;2023-02-02T07:58:08;7.00;99.90
9881;DHT22;4979;51.014;6.678;2023-02-02T08:00:34;7.00;99.90
9881;DHT22;4979;51.014;6.678;2023-02-02T08:03:00;7.10;99.90
9881;DHT22;4979;51.014;6.678;2023-02-02T08:05:26;7.00;99.90
9881;DHT22;4979;51.014;6.678;2023-02-02T08:07:52;7.00;99.90
9881;DHT22;4979;51.014;6.678;2023-02-02T08:10:17;7.00;99.90
9881;DHT22;4979;51.014;6.678;2023-02-02T08:12:43;7.00;99.90
9881;DHT22;4979;51.014;6.678;2023-02-02T08:15:09;7.00;99.90
9881;DHT22;4979;51.014;6.678;2023-02-02T08:17:34;7.10;99.90
9881;DHT22;4979;51.014;6.678;2023-02-02T08:20:01;7.10;99.90
9881;DHT22;4979;51.014;6.678;2023-02-02T08:22:27;7.20;99.90
9881;DHT22;4979;51.014;6.678;2023-02-02T08:24:53;7.10;99.90
9881;DHT22;4979;51.014;6.678;2023-02-02T08:27:18;7.00;99.90
9881;DHT22;4979;51.014;6.678;2023-02-02T08:29:44;7.10;99.90
9881;DHT22;4979;51.014;6.678;2023-02-02T08:32:10;7.20;99.90
9881;DHT22;4979;51.014;6.678;2023-02-02T08:34:36;7.10;99.90
9881;DHT22;4979;51.014;6.678;2023-02-02T08:37:02;7.10;99.90
9881;DHT22;4979;51.014;6.678;2023-02-02T08:39:28;7.20;99.90
9881;DHT22;4979;51.014;6.678;2023-02-02T08:41:54;7.10;99.90
9881;DHT22;4979;51.014;6.678;2023-02-02T08:44:20;7.10;99.90
9881;DHT22;4979;51.014;6.678;2023-02-02T08:46:46;7.20;99.90
9881;DHT22;4979;51.014;6.678;2023-02-02T08:49:12;7.20;99.90
9881;DHT22;4979;51.014;6.678;2023-02-02T08:51:38;7.10;99.90
9881;DHT22;4979;51.014;6.678;2023-02-02T08:54:04;7.20;99.90
9881;DHT22;4979;51.014;6.678;2023-02-02T08:56:29;7.30;99.90
9881;DHT22;4979;51.014;6.678;2023-02-02T08:58:56;7.20;99.90
9881;DHT22;4979;51.014;6.678;2023-02-02T09:01:29;7.30;99.90
9881;DHT22;4979;51.014;6.678;2023-02-02T09:04:03;7.30;99.90
9881;DHT22;4979;51.014;6.678;2023-02-02T09:06:32;7.40;99.90
9881;DHT22;4979;51.014;6.678;2023-02-02T09:08:58;7.30;99.90
9881;DHT22;4979;51.014;6.678;2023-02-02T09:11:24;7.30;99.90
9881;DHT22;4979;51.014;6.678;2023-02-02T09:13:57;7.40;99.90
9881;DHT22;4979;51.014;6.678;2023-02-02T09:16:24;7.40;99.90
9881;DHT22;4979;51.014;6.678;2023-02-02T09:18:49;7.30;99.90
9881;DHT22;4979;51.014;6.678;2023-02-02T09:21:16;7.40;99.90
9881;DHT22;4979;51.014;6.678;2023-02-02T09:23:43;7.40;99.90
9881;DHT22;4979;51.014;6.678;2023-02-02T09:26:10;7.50;99.90
9881;DHT22;4979;51.014;6.678;2023-02-02T09:28:40;7.50;99.90
9881;DHT22;4979;51.014;6.678;2023-02-02T09:31:06;7.60;99.90
9881;DHT22;4979;51.014;6.678;2023-02-02T09:33:32;7.50;99.90
9881;DHT22;4979;51.014;6.678;2023-02-02T09:38:31;7.50;99.90
9881;DHT22;4979;51.014;6.678;2023-02-02T09:40:56;7.50;99.90
9881;DHT22;4979;51.014;6.678;2023-02-02T09:46:16;7.40;99.90
9881;DHT22;4979;51.014;6.678;2023-02-02T09:48:57;7.50;99.90
9881;DHT22;4979;51.014;6.678;2023-02-02T09:51:27;7.30;99.90
9881;DHT22;4979;51.014;6.678;2023-02-02T09:54:01;7.40;99.90
9881;DHT22;4979;51.014;6.678;2023-02-02T09:56:37;7.40;99.90
9881;DHT22;4979;51.014;6.678;2023-02-02T09:59:07;7.40;99.90
9881;DHT22;4979;51.014;6.678;2023-02-02T10:01:39;7.40;99.90
9881;DHT22;4979;51.014;6.678;2023-02-02T10:04:15;7.40;99.90
9881;DHT22;4979;51.014;6.678;2023-02-02T10:06:49;7.40;99.90
9881;DHT22;4979;51.014;6.678;2023-02-02T10:09:43;7.30;99.90
9881;DHT22;4979;51.014;6.678;2023-02-02T10:15:15;7.40;99.90
9881;DHT22;4979;51.014;6.678;2023-02-02T10:23:28;7.40;99.90
9881;DHT22;4979;51.014;6.678;2023-02-02T10:29:05;7.50;99.90
9881;DHT22;4979;51.014;6.678;2023-02-02T10:34:24;7.40;99.90
9881;DHT22;4979;51.014;6.678;2023-02-02T10:39:40;7.50;99.90
9881;DHT22;4979;51.014;6.678;2023-02-02T10:42:33;7.50;99.90
9881;DHT22;4979;51.014;6.678;2023-02-02T10:45:14;7.40;99.90
9881;DHT22;4979;51.014;6.678;2023-02-02T10:47:42;7.60;99.90
9881;DHT22;4979;51.014;6.678;2023-02-02T10:50:17;7.70;99.90
9881;DHT22;4979;51.014;6.678;2023-02-02T10:52:47;7.70;99.90
9881;DHT22;4979;51.014;6.678;2023-02-02T10:56:00;7.60;99.90
9881;DHT22;4979;51.014;6.678;2023-02-02T11:00:53;7.80;99.90
9881;DHT22;4979;51.014;6.678;2023-02-02T11:03:22;7.70;99.90
9881;DHT22;4979;51.014;6.678;2023-02-02T11:05:49;7.80;99.90
9881;DHT22;4979;51.014;6.678;2023-02-02T11:08:42;7.90;99.90
9881;DHT22;4979;51.014;6.678;2023-02-02T11:11:16;7.90;99.90
9881;DHT22;4979;51.014;6.678;2023-02-02T11:13:52;7.90;99.90
9881;DHT22;4979;51.014;6.678;2023-02-02T11:16:21;8.00;99.90
9881;DHT22;4979;51.014;6.678;2023-02-02T11:18:47;8.00;99.90
9881;DHT22;4979;51.014;6.678;2023-02-02T11:23:54;8.10;99.90
9881;DHT22;4979;51.014;6.678;2023-02-02T11:26:22;8.20;99.90
9881;DHT22;4979;51.014;6.678;2023-02-02T11:28:49;8.10;99.90
9881;DHT22;4979;51.014;6.678;2023-02-02T11:31:36;11.00;99.90
9881;DHT22;4979;51.014;6.678;2023-02-02T11:34:18;8.20;99.90
9881;DHT22;4979;51.014;6.678;2023-02-02T11:37:20;8.20;99.90
9881;DHT22;4979;51.014;6.678;2023-02-02T11:39:46;8.20;99.90
9881;DHT22;4979;51.014;6.678;2023-02-02T11:42:17;8.20;99.90
9881;DHT22;4979;51.014;6.678;2023-02-02T11:44:53;8.20;99.90
9881;DHT22;4979;51.014;6.678;2023-02-02T11:47:28;8.30;99.90
9881;DHT22;4979;51.014;6.678;2023-02-02T11:49:56;8.40;99.90
9881;DHT22;4979;51.014;6.678;2023-02-02T11:52:24;8.40;99.90
9881;DHT22;4979;51.014;6.678;2023-02-02T11:54:53;8.50;99.90
9881;DHT22;4979;51.014;6.678;2023-02-02T11:57:22;8.50;99.90
9881;DHT22;4979;51.014;6.678;2023-02-02T12:00:25;8.60;99.90
9881;DHT22;4979;51.014;6.678;2023-02-02T12:02:51;8.70;99.90
9881;DHT22;4979;51.014;6.678;2023-02-02T12:07:45;8.70;99.90
9881;DHT22;4979;51.014;6.678;2023-02-02T12:13:04;8.80;99.90
9881;DHT22;4979;51.014;6.678;2023-02-02T12:15:46;8.80;99.90
9881;DHT22;4979;51.014;6.678;2023-02-02T12:21:02;8.80;99.90
9881;DHT22;4979;51.014;6.678;2023-02-02T12:26:31;8.80;99.90
9881;DHT22;4979;51.014;6.678;2023-02-02T12:34:49;8.80;99.90
9881;DHT22;4979;51.014;6.678;2023-02-02T12:37:23;8.70;99.90
9881;DHT22;4979;51.014;6.678;2023-02-02T12:42:36;8.80;99.90
9881;DHT22;4979;51.014;6.678;2023-02-02T13:04:51;8.80;99.90
9881;DHT22;4979;51.014;6.678;2023-02-02T13:07:31;8.80;99.90
9881;DHT22;4979;51.014;6.678;2023-02-02T13:10:07;8.90;99.90
9881;DHT22;4979;51.014;6.678;2023-02-02T13:12:39;8.80;99.90
9881;DHT22;4979;51.014;6.678;2023-02-02T13:15:08;8.90;99.90
9881;DHT22;4979;51.014;6.678;2023-02-02T13:17:45;8.80;99.90
9881;DHT22;4979;51.014;6.678;2023-02-02T13:22:56;8.90;99.90
9881;DHT22;4979;51.014;6.678;2023-02-02T13:25:28;8.90;99.90
9881;DHT22;4979;51.014;6.678;2023-02-02T13:27:57;8.90;99.90
9881;DHT22;4979;51.014;6.678;2023-02-02T13:30:31;8.90;99.90
9881;DHT22;4979;51.014;6.678;2023-02-02T13:33:21;8.90;99.90
9881;DHT22;4979;51.014;6.678;2023-02-02T13:35:53;8.80;99.90
9881;DHT22;4979;51.014;6.678;2023-02-02T13:38:24;8.70;99.90
9881;DHT22;4979;51.014;6.678;2023-02-02T13:40:53;8.70;99.90
9881;DHT22;4979;51.014;6.678;2023-02-02T13:48:54;8.70;99.90
9881;DHT22;4979;51.014;6.678;2023-02-02T13:57:58;8.80;99.90
9881;DHT22;4979;51.014;6.678;2023-02-02T14:00:33;8.80;99.90
9881;DHT22;4979;51.014;6.678;2023-02-02T14:03:04;8.80;99.90
9881;DHT22;4979;51.014;6.678;2023-02-02T14:05:37;8.80;99.90
9881;DHT22;4979;51.014;6.678;2023-02-02T14:08:05;8.80;99.90
9881;DHT22;4979;51.014;6.678;2023-02-02T14:10:44;8.90;99.90
9881;DHT22;4979;51.014;6.678;2023-02-02T14:13:26;9.00;99.90
9881;DHT22;4979;51.014;6.678;2023-02-02T14:16:23;9.10;99.90
9881;DHT22;4979;51.014;6.678;2023-02-02T14:26:54;9.20;99.90
9881;DHT22;4979;51.014;6.678;2023-02-02T14:34:55;9.20;99.90
9881;DHT22;4979;51.014;6.678;2023-02-02T14:40:02;9.30;99.90
9881;DHT22;4979;51.014;6.678;2023-02-02T14:45:29;9.20;99.90
9881;DHT22;4979;51.014;6.678;2023-02-02T14:48:17;9.20;99.90
9881;DHT22;4979;51.014;6.678;2023-02-02T14:50:57;9.20;99.90
9881;DHT22;4979;51.014;6.678;2023-02-02T14:53:34;9.20;99.90
9881;DHT22;4979;51.014;6.678;2023-02-02T14:58:33;9.20;99.90
9881;DHT22;4979;51.014;6.678;2023-02-02T15:01:12;9.20;99.90
9881;DHT22;4979;51.014;6.678;2023-02-02T15:03:53;9.10;99.90
9881;DHT22;4979;51.014;6.678;2023-02-02T15:06:30;9.10;99.90
9881;DHT22;4979;51.014;6.678;2023-02-02T15:17:57;9.10;99.90
9881;DHT22;4979;51.014;6.678;2023-02-02T15:23:12;9.10;99.90
9881;DHT22;4979;51.014;6.678;2023-02-02T15:25:50;9.10;99.90
9881;DHT22;4979;51.014;6.678;2023-02-02T15:28:41;9.10;99.90
9881;DHT22;4979;51.014;6.678;2023-02-02T15:31:15;9.10;99.90
9881;DHT22;4979;51.014;6.678;2023-02-02T15:33:49;9.10;99.90
9881;DHT22;4979;51.014;6.678;2023-02-02T15:36:22;9.10;99.90
9881;DHT22;4979;51.014;6.678;2023-02-02T15:38:51;9.10;99.90
9881;DHT22;4979;51.014;6.678;2023-02-02T15:41:19;9.10;99.90
9881;DHT22;4979;51.014;6.678;2023-02-02T15:43:46;9.00;99.90
9881;DHT22;4979;51.014;6.678;2023-02-02T15:46:20;9.10;99.90
9881;DHT22;4979;51.014;6.678;2023-02-02T15:49:13;9.00;99.90
9881;DHT22;4979;51.014;6.678;2023-02-02T15:51:42;9.00;99.90
9881;DHT22;4979;51.014;6.678;2023-02-02T15:54:49;9.00;99.90
9881;DHT22;4979;51.014;6.678;2023-02-02T15:57:43;9.00;99.90
9881;DHT22;4979;51.014;6.678;2023-02-02T16:00:33;9.00;99.90
9881;DHT22;4979;51.014;6.678;2023-02-02T16:03:00;9.00;99.90
9881;DHT22;4979;51.014;6.678;2023-02-02T16:08:00;9.00;99.90
9881;DHT22;4979;51.014;6.678;2023-02-02T16:10:27;9.00;99.90
9881;DHT22;4979;51.014;6.678;2023-02-02T16:12:52;8.90;99.90
9881;DHT22;4979;51.014;6.678;2023-02-02T16:15:24;9.00;99.90
9881;DHT22;4979;51.014;6.678;2023-02-02T16:18:01;9.00;99.90
9881;DHT22;4979;51.014;6.678;2023-02-02T16:20:30;9.00;99.90
9881;DHT22;4979;51.014;6.678;2023-02-02T16:22:57;8.90;99.90
9881;DHT22;4979;51.014;6.678;2023-02-02T16:25:30;9.00;99.90
9881;DHT22;4979;51.014;6.678;2023-02-02T16:27:57;9.00;99.90
9881;DHT22;4979;51.014;6.678;2023-02-02T16:30:37;8.90;99.90
9881;DHT22;4979;51.014;6.678;2023-02-02T16:33:36;8.90;99.90
9881;DHT22;4979;51.014;6.678;2023-02-02T16:36:23;8.90;99.90
9881;DHT22;4979;51.014;6.678;2023-02-02T16:38:49;9.00;99.90
9881;DHT22;4979;51.014;6.678;2023-02-02T16:41:35;8.90;99.90
9881;DHT22;4979;51.014;6.678;2023-02-02T16:46:58;8.90;99.90
9881;DHT22;4979;51.014;6.678;2023-02-02T16:49:25;8.90;99.90
9881;DHT22;4979;51.014;6.678;2023-02-02T16:52:13;8.90;99.90
9881;DHT22;4979;51.014;6.678;2023-02-02T16:54:48;8.90;99.90
9881;DHT22;4979;51.014;6.678;2023-02-02T16:57:17;8.80;99.90
9881;DHT22;4979;51.014;6.678;2023-02-02T16:59:50;8.80;99.90
9881;DHT22;4979;51.014;6.678;2023-02-02T17:02:35;8.80;99.90
9881;DHT22;4979;51.014;6.678;2023-02-02T17:05:15;8.80;99.90
9881;DHT22;4979;51.014;6.678;2023-02-02T17:07:54;8.80;99.90
9881;DHT22;4979;51.014;6.678;2023-02-02T17:12:55;8.60;99.90
9881;DHT22;4979;51.014;6.678;2023-02-02T17:15:29;8.50;99.90
9881;DHT22;4979;51.014;6.678;2023-02-02T17:17:55;8.60;99.90
9881;DHT22;4979;51.014;6.678;2023-02-02T17:20:20;8.50;99.90
9881;DHT22;4979;51.014;6.678;2023-02-02T17:22:51;8.50;99.90
9881;DHT22;4979;51.014;6.678;2023-02-02T17:25:41;8.50;99.90
9881;DHT22;4979;51.014;6.678;2023-02-02T17:28:15;8.40;99.90
9881;DHT22;4979;51.014;6.678;2023-02-02T17:30:43;8.30;99.90
9881;DHT22;4979;51.014;6.678;2023-02-02T17:33:16;8.40;99.90
9881;DHT22;4979;51.014;6.678;2023-02-02T17:35:43;8.30;99.90
9881;DHT22;4979;51.014;6.678;2023-02-02T17:38:09;8.30;99.90
9881;DHT22;4979;51.014;6.678;2023-02-02T17:40:34;8.40;99.90
9881;DHT22;4979;51.014;6.678;2023-02-02T17:43:00;8.20;99.90
9881;DHT22;4979;51.014;6.678;2023-02-02T17:45:32;10.10;99.90
9881;DHT22;4979;51.014;6.678;2023-02-02T17:47:58;8.20;99.90
9881;DHT22;4979;51.014;6.678;2023-02-02T17:50:27;8.30;99.90
9881;DHT22;4979;51.014;6.678;2023-02-02T17:52:54;8.20;99.90
9881;DHT22;4979;51.014;6.678;2023-02-02T17:55:35;8.20;99.90
9881;DHT22;4979;51.014;6.678;2023-02-02T17:58:01;8.20;99.90
9881;DHT22;4979;51.014;6.678;2023-02-02T18:00:27;8.10;99.90
9881;DHT22;4979;51.014;6.678;2023-02-02T18:02:56;8.20;99.90
9881;DHT22;4979;51.014;6.678;2023-02-02T18:05:24;8.10;99.90
9881;DHT22;4979;51.014;6.678;2023-02-02T18:07:50;8.10;99.90
9881;DHT22;4979;51.014;6.678;2023-02-02T18:10:15;8.20;99.90
9881;DHT22;4979;51.014;6.678;2023-02-02T18:12:43;8.20;99.90
9881;DHT22;4979;51.014;6.678;2023-02-02T18:15:11;8.10;99.90
9881;DHT22;4979;51.014;6.678;2023-02-02T18:17:37;8.20;99.90
9881;DHT22;4979;51.014;6.678;2023-02-02T18:20:03;8.10;99.90
9881;DHT22;4979;51.014;6.678;2023-02-02T18:22:30;8.10;99.90
9881;DHT22;4979;51.014;6.678;2023-02-02T18:24:55;8.10;99.90
9881;DHT22;4979;51.014;6.678;2023-02-02T18:27:23;8.20;99.90
9881;DHT22;4979;51.014;6.678;2023-02-02T18:29:48;8.10;99.90
9881;DHT22;4979;51.014;6.678;2023-02-02T18:32:14;8.30;99.90
9881;DHT22;4979;51.014;6.678;2023-02-02T18:34:41;8.10;99.90
9881;DHT22;4979;51.014;6.678;2023-02-02T18:37:06;8.20;99.90
9881;DHT22;4979;51.014;6.678;2023-02-02T18:39:32;8.10;99.90
9881;DHT22;4979;51.014;6.678;2023-02-02T18:41:58;8.20;99.90
9881;DHT22;4979;51.014;6.678;2023-02-02T18:44:23;8.20;99.90
9881;DHT22;4979;51.014;6.678;2023-02-02T18:46:52;8.20;99.90
9881;DHT22;4979;51.014;6.678;2023-02-02T18:49:18;8.20;99.90
9881;DHT22;4979;51.014;6.678;2023-02-02T18:51:44;8.20;99.90
9881;DHT22;4979;51.014;6.678;2023-02-02T18:54:11;8.20;99.90
9881;DHT22;4979;51.014;6.678;2023-02-02T18:56:37;8.30;99.90
9881;DHT22;4979;51.014;6.678;2023-02-02T18:59:03;8.30;99.90
9881;DHT22;4979;51.014;6.678;2023-02-02T19:01:30;8.40;99.90
9881;DHT22;4979;51.014;6.678;2023-02-02T19:03:56;8.30;99.90